createdAt,value
2018-05-29T00:00:05.240Z,25.70
2018-05-29T00:02:33.509Z,25.70
2018-05-29T00:05:02.577Z,25.60
2018-05-29T00:07:30.837Z,25.60
2018-05-29T00:09:59.096Z,25.70
2018-05-29T00:12:28.317Z,25.70
2018-05-29T00:14:56.602Z,25.60
2018-05-29T00:17:24.865Z,25.50
2018-05-29T00:19:53.152Z,25.50
2018-05-29T00:22:21.777Z,25.50
2018-05-29T00:24:50.037Z,25.40
2018-05-29T00:27:18.316Z,25.30
2018-05-29T00:29:47.336Z,25.10
2018-05-29T00:32:15.601Z,25.10
2018-05-29T00:34:44.953Z,25.10
2018-05-29T00:37:13.224Z,25.10
2018-05-29T00:39:41.479Z,25.10
2018-05-29T00:42:09.757Z,25.00
2018-05-29T00:44:38.016Z,25.00
2018-05-29T00:47:06.283Z,25.00
2018-05-29T00:49:34.565Z,24.90
2018-05-29T00:52:02.813Z,24.90
2018-05-29T00:54:31.085Z,24.80
2018-05-29T00:56:59.748Z,24.80
2018-05-29T00:59:28.008Z,24.70
2018-05-29T01:01:56.269Z,24.70
2018-05-29T01:04:24.561Z,24.70
2018-05-29T01:06:52.824Z,24.60
2018-05-29T01:09:21.068Z,24.60
2018-05-29T01:11:50.125Z,24.60
2018-05-29T01:14:18.380Z,24.60
2018-05-29T01:16:46.645Z,24.60
2018-05-29T01:19:15.160Z,24.50
2018-05-29T01:21:43.416Z,24.40
2018-05-29T01:24:11.866Z,24.40
2018-05-29T01:26:43.006Z,24.40
2018-05-29T01:29:12.038Z,24.30
2018-05-29T01:31:40.300Z,24.30
2018-05-29T01:34:08.589Z,24.20
2018-05-29T01:36:36.844Z,24.20
2018-05-29T01:39:05.106Z,24.20
2018-05-29T01:41:33.642Z,24.20
2018-05-29T01:44:01.897Z,24.10
2018-05-29T01:46:30.148Z,24.20
2018-05-29T01:48:58.756Z,24.10
2018-05-29T01:51:27.021Z,24.00
2018-05-29T01:53:55.270Z,23.90
2018-05-29T01:56:24.316Z,23.80
2018-05-29T01:58:52.576Z,23.80
2018-05-29T02:01:20.832Z,23.70
2018-05-29T02:03:49.344Z,23.60
2018-05-29T02:06:17.656Z,23.60
2018-05-29T02:08:45.916Z,23.60
2018-05-29T02:11:14.205Z,23.60
2018-05-29T02:13:42.464Z,23.70
2018-05-29T02:16:10.712Z,23.60
2018-05-29T02:18:39.000Z,23.50
2018-05-29T02:21:07.264Z,23.40
2018-05-29T02:23:35.526Z,23.40
2018-05-29T02:26:04.201Z,23.50
2018-05-29T02:28:33.232Z,23.20
2018-05-29T02:31:01.493Z,23.20
2018-05-29T02:33:29.895Z,23.20
2018-05-29T02:35:58.157Z,23.20
2018-05-29T02:38:26.491Z,23.10
2018-05-29T02:40:54.763Z,23.10
2018-05-29T02:43:23.012Z,23.10
2018-05-29T02:45:51.262Z,23.10
2018-05-29T02:48:20.180Z,23.10
2018-05-29T02:50:48.437Z,23.10
2018-05-29T02:53:16.696Z,23.10
2018-05-29T02:55:44.981Z,23.10
2018-05-29T02:58:13.239Z,23.10
2018-05-29T03:00:41.500Z,23.00
2018-05-29T03:03:09.781Z,22.90
2018-05-29T03:05:38.797Z,22.80
2018-05-29T03:08:07.123Z,22.80
2018-05-29T03:10:35.461Z,22.80
2018-05-29T03:13:03.713Z,22.70
2018-05-29T03:15:32.733Z,22.70
2018-05-29T03:18:01.036Z,22.70
2018-05-29T03:20:29.270Z,22.70
2018-05-29T03:22:57.532Z,22.70
2018-05-29T03:25:25.824Z,22.60
2018-05-29T03:27:54.200Z,22.60
2018-05-29T03:30:23.219Z,22.50
2018-05-29T03:32:51.924Z,22.50
2018-05-29T03:35:20.175Z,22.50
2018-05-29T03:37:48.428Z,22.40
2018-05-29T03:40:17.477Z,22.40
2018-05-29T03:42:45.737Z,22.40
2018-05-29T03:45:13.984Z,22.40
2018-05-29T03:47:42.444Z,22.40
2018-05-29T03:50:11.464Z,22.30
2018-05-29T03:52:39.716Z,22.30
2018-05-29T03:55:08.254Z,22.30
2018-05-29T03:57:36.516Z,22.30
2018-05-29T04:00:04.785Z,22.30
2018-05-29T04:02:33.096Z,22.30
2018-05-29T04:05:01.357Z,22.30
2018-05-29T04:07:29.613Z,22.30
2018-05-29T04:09:57.907Z,22.30
2018-05-29T04:12:26.169Z,22.30
2018-05-29T04:14:54.424Z,22.30
2018-05-29T04:17:23.058Z,22.30
2018-05-29T04:19:51.317Z,22.30
2018-05-29T04:22:19.583Z,22.30
2018-05-29T04:24:47.861Z,22.30
2018-05-29T04:27:16.112Z,22.30
2018-05-29T04:29:44.593Z,22.40
2018-05-29T04:32:13.650Z,22.30
2018-05-29T04:34:41.926Z,22.30
2018-05-29T04:37:10.185Z,22.30
2018-05-29T04:39:38.760Z,22.30
2018-05-29T04:42:07.027Z,22.20
2018-05-29T04:44:35.278Z,22.30
2018-05-29T04:47:04.388Z,22.30
2018-05-29T04:49:32.599Z,22.30
2018-05-29T04:52:00.852Z,22.30
2018-05-29T04:54:29.133Z,22.30
2018-05-29T04:56:57.388Z,22.30
2018-05-29T04:59:25.643Z,22.40
2018-05-29T05:01:54.205Z,22.40
2018-05-29T05:04:23.229Z,22.50
2018-05-29T05:06:52.253Z,22.50
2018-05-29T05:09:20.524Z,22.50
2018-05-29T05:11:48.777Z,22.60
2018-05-29T05:14:17.108Z,22.70
2018-05-29T05:16:45.369Z,22.70
2018-05-29T05:19:13.629Z,22.80
2018-05-29T05:21:41.885Z,22.90
2018-05-29T05:24:10.509Z,23.00
2018-05-29T05:26:38.765Z,23.10
2018-05-29T05:29:07.021Z,23.10
2018-05-29T05:31:36.378Z,23.20
2018-05-29T05:34:04.624Z,23.20
2018-05-29T05:36:32.888Z,23.20
2018-05-29T05:39:01.180Z,23.20
2018-05-29T05:41:29.437Z,23.30
2018-05-29T05:43:57.692Z,23.30
2018-05-29T05:46:26.296Z,23.40
2018-05-29T05:48:54.564Z,23.40
2018-05-29T05:51:23.612Z,23.50
2018-05-29T05:53:51.967Z,23.50
2018-05-29T05:56:20.224Z,23.50
2018-05-29T05:58:48.487Z,23.50
2018-05-29T06:01:18.040Z,23.70
2018-05-29T06:03:46.381Z,23.60
2018-05-29T06:06:15.396Z,23.80
2018-05-29T06:08:44.224Z,23.80
2018-05-29T06:11:13.993Z,24.00
2018-05-29T06:13:42.245Z,24.00
2018-05-29T06:16:10.537Z,24.10
2018-05-29T06:18:38.797Z,24.20
2018-05-29T06:21:07.820Z,24.20
2018-05-29T06:23:36.104Z,24.10
2018-05-29T06:26:04.517Z,24.20
2018-05-29T06:28:32.817Z,24.20
2018-05-29T06:31:01.344Z,24.30
2018-05-29T06:33:30.099Z,24.40
2018-05-29T06:35:59.116Z,24.60
2018-05-29T06:38:27.388Z,24.60
2018-05-29T06:40:55.640Z,24.70
2018-05-29T06:43:23.923Z,24.70
2018-05-29T06:45:52.360Z,24.70
2018-05-29T06:48:20.600Z,24.80
2018-05-29T06:50:48.868Z,24.80
2018-05-29T06:53:17.360Z,24.90
2018-05-29T06:55:45.636Z,24.90
2018-05-29T06:58:13.892Z,25.00
2018-05-29T07:00:42.185Z,25.10
2018-05-29T07:03:10.544Z,25.10
2018-05-29T07:05:39.565Z,25.20
2018-05-29T07:08:07.844Z,25.20
2018-05-29T07:10:36.106Z,25.30
2018-05-29T07:13:04.357Z,25.30
2018-05-29T07:15:33.705Z,25.30
2018-05-29T07:18:01.972Z,25.30
2018-05-29T07:20:30.229Z,25.30
2018-05-29T07:22:58.527Z,25.40
2018-05-29T07:25:26.774Z,25.50
2018-05-29T07:27:55.047Z,25.60
2018-05-29T07:30:23.325Z,25.60
2018-05-29T07:32:52.357Z,25.70
2018-05-29T07:35:21.013Z,25.70
2018-05-29T07:37:49.479Z,25.70
2018-05-29T07:40:18.501Z,26.00
2018-05-29T07:42:46.759Z,25.90
2018-05-29T07:45:17.964Z,26.10
2018-05-29T07:47:46.276Z,26.10
2018-05-29T07:50:15.323Z,26.20
2018-05-29T07:52:43.604Z,26.10
2018-05-29T07:55:13.007Z,26.30
2018-05-29T07:57:41.273Z,26.40
2018-05-29T08:00:09.636Z,26.50
2018-05-29T08:02:37.961Z,26.50
2018-05-29T08:05:06.457Z,26.50
2018-05-29T08:07:34.981Z,26.50
2018-05-29T08:10:03.237Z,26.50
2018-05-29T08:12:32.248Z,26.60
2018-05-29T08:15:00.528Z,26.60
2018-05-29T08:17:28.800Z,26.60
2018-05-29T08:19:57.089Z,26.60
2018-05-29T08:22:25.522Z,26.60
2018-05-29T08:24:54.617Z,26.60
2018-05-29T08:27:22.869Z,26.60
2018-05-29T08:29:51.148Z,26.70
2018-05-29T08:32:19.413Z,26.70
2018-05-29T08:34:47.701Z,26.70
2018-05-29T08:37:16.357Z,26.90
2018-05-29T08:39:44.644Z,27.00
2018-05-29T08:42:12.897Z,27.10
2018-05-29T08:44:41.521Z,27.20
2018-05-29T08:47:09.809Z,27.20
2018-05-29T08:49:38.073Z,27.30
2018-05-29T08:52:07.888Z,27.60
2018-05-29T08:54:36.157Z,27.60
2018-05-29T08:57:04.436Z,27.70
2018-05-29T08:59:32.720Z,27.80
2018-05-29T09:02:00.979Z,28.00
2018-05-29T09:04:29.244Z,28.10
2018-05-29T09:06:58.149Z,28.20
2018-05-29T09:09:26.478Z,28.30
2018-05-29T09:11:55.556Z,28.40
2018-05-29T09:14:23.838Z,28.40
2018-05-29T09:16:52.876Z,28.60
2018-05-29T09:19:21.128Z,28.60
2018-05-29T09:21:49.417Z,28.70
2018-05-29T09:24:17.665Z,28.70
2018-05-29T09:26:46.692Z,28.70
2018-05-29T09:29:15.095Z,28.70
2018-05-29T09:31:43.421Z,28.60
2018-05-29T09:34:12.572Z,28.60
2018-05-29T09:36:40.852Z,28.60
2018-05-29T09:39:09.492Z,28.40
2018-05-29T09:41:37.751Z,28.30
2018-05-29T09:44:06.035Z,28.20
2018-05-29T09:46:35.050Z,28.30
2018-05-29T09:49:03.317Z,28.30
2018-05-29T09:51:32.005Z,28.40
2018-05-29T09:54:00.405Z,28.50
2018-05-29T09:56:28.649Z,28.60
2018-05-29T09:58:56.920Z,28.50
2018-05-29T10:01:25.184Z,28.60
2018-05-29T10:03:54.204Z,29.00
2018-05-29T10:06:22.493Z,29.00
2018-05-29T10:08:50.747Z,29.20
2018-05-29T10:11:19.217Z,29.30
2018-05-29T10:13:47.557Z,29.40
2018-05-29T10:16:15.809Z,29.50
2018-05-29T10:18:44.064Z,29.70
2018-05-29T10:21:12.337Z,29.70
2018-05-29T10:23:40.596Z,29.80
2018-05-29T10:26:09.616Z,29.60
2018-05-29T10:28:37.911Z,29.50
2018-05-29T10:31:06.157Z,29.50
2018-05-29T10:33:34.426Z,29.60
2018-05-29T10:36:03.655Z,29.60
2018-05-29T10:38:31.905Z,29.60
2018-05-29T10:41:00.342Z,29.70
2018-05-29T10:43:28.625Z,29.80
2018-05-29T10:45:56.901Z,30.00
2018-05-29T10:48:25.142Z,30.10
2018-05-29T10:50:53.425Z,30.30
2018-05-29T10:53:21.686Z,30.30
2018-05-29T10:55:49.942Z,30.40
2018-05-29T10:58:18.280Z,30.60
2018-05-29T11:00:46.533Z,30.70
2018-05-29T11:03:14.798Z,31.00
2018-05-29T11:05:43.075Z,31.30
2018-05-29T11:08:11.333Z,31.70
2018-05-29T11:10:39.589Z,32.10
2018-05-29T11:13:07.881Z,32.40
2018-05-29T11:15:36.917Z,33.10
2018-05-29T11:18:05.194Z,33.10
2018-05-29T11:20:33.699Z,33.80
2018-05-29T11:23:01.981Z,34.90
2018-05-29T11:25:30.464Z,36.10
2018-05-29T11:27:59.512Z,37.30
2018-05-29T11:30:27.761Z,37.30
2018-05-29T11:32:56.783Z,37.80
2018-05-29T11:35:25.061Z,37.80
2018-05-29T11:37:53.338Z,37.30
2018-05-29T11:40:21.692Z,36.70
2018-05-29T11:42:50.278Z,36.10
2018-05-29T11:45:19.308Z,35.50
2018-05-29T11:47:47.549Z,35.40
2018-05-29T11:50:15.841Z,35.20
2018-05-29T11:52:44.096Z,34.90
2018-05-29T11:55:13.117Z,34.30
2018-05-29T11:57:41.469Z,34.30
2018-05-29T12:00:10.492Z,34.00
2018-05-29T12:02:38.747Z,34.00
2018-05-29T12:05:07.088Z,34.20
2018-05-29T12:07:35.424Z,34.40
2018-05-29T12:10:03.707Z,34.50
2018-05-29T12:12:31.982Z,34.40
2018-05-29T12:15:00.237Z,34.40
2018-05-29T12:17:28.492Z,34.50
2018-05-29T12:19:57.652Z,34.40
2018-05-29T12:22:26.066Z,34.30
2018-05-29T12:24:54.288Z,34.10
2018-05-29T12:27:22.980Z,34.10
2018-05-29T12:29:51.233Z,34.20
2018-05-29T12:32:19.488Z,34.30
2018-05-29T12:34:48.537Z,33.70
2018-05-29T12:37:16.794Z,33.60
2018-05-29T12:39:45.083Z,33.40
2018-05-29T12:42:13.362Z,33.20
2018-05-29T12:44:42.372Z,33.10
2018-05-29T12:47:10.621Z,33.00
2018-05-29T12:49:39.322Z,32.80
2018-05-29T12:52:07.574Z,32.90
2018-05-29T12:54:36.024Z,33.10
2018-05-29T12:57:05.082Z,33.40
2018-05-29T12:59:34.486Z,33.30
2018-05-29T13:02:02.729Z,33.60
2018-05-29T13:04:31.106Z,34.30
2018-05-29T13:06:59.793Z,35.10
2018-05-29T13:09:28.133Z,36.40
2018-05-29T13:11:59.172Z,38.70
2018-05-29T13:14:27.696Z,38.70
2018-05-29T13:16:58.374Z,39.20
2018-05-29T13:19:26.672Z,39.70
2018-05-29T13:21:54.956Z,39.90
2018-05-29T13:24:24.553Z,40.00
2018-05-29T13:26:54.480Z,40.50
2018-05-29T13:29:23.557Z,40.60
2018-05-29T13:31:52.934Z,40.60
2018-05-29T13:34:21.698Z,41.20
2018-05-29T13:36:55.227Z,41.70
2018-05-29T13:39:23.488Z,42.30
2018-05-29T13:41:51.797Z,42.80
2018-05-29T13:44:20.180Z,43.10
2018-05-29T13:46:49.447Z,42.20
2018-05-29T13:49:17.786Z,42.20
2018-05-29T13:51:45.972Z,42.80
2018-05-29T13:54:14.328Z,43.20
2018-05-29T13:56:43.505Z,42.20
2018-05-29T13:59:12.905Z,42.20
2018-05-29T14:01:41.184Z,41.30
2018-05-29T14:04:09.473Z,40.30
2018-05-29T14:06:37.834Z,39.10
2018-05-29T14:09:06.199Z,38.30
2018-05-29T14:11:35.353Z,39.50
2018-05-29T14:14:04.197Z,39.50
2018-05-29T14:16:32.664Z,40.30
2018-05-29T14:19:01.032Z,40.40
2018-05-29T14:21:29.372Z,41.50
2018-05-29T14:23:57.749Z,42.40
2018-05-29T14:26:26.001Z,43.10
2018-05-29T14:28:54.485Z,43.60
2018-05-29T14:31:22.801Z,43.70
2018-05-29T14:33:51.050Z,43.40
2018-05-29T14:36:19.357Z,42.40
2018-05-29T14:38:47.682Z,41.80
2018-05-29T14:41:16.049Z,41.70
2018-05-29T14:43:44.391Z,41.50
2018-05-29T14:46:12.809Z,41.20
2018-05-29T14:48:41.060Z,41.30
2018-05-29T14:51:09.304Z,41.50
2018-05-29T14:53:37.580Z,42.00
2018-05-29T14:56:05.934Z,42.10
2018-05-29T14:58:34.165Z,42.20
2018-05-29T15:01:02.489Z,41.50
2018-05-29T15:03:30.799Z,40.60
2018-05-29T15:05:59.177Z,40.10
2018-05-29T15:08:27.444Z,39.40
2018-05-29T15:10:55.877Z,38.60
2018-05-29T15:13:24.265Z,38.30
2018-05-29T15:15:52.563Z,38.30
2018-05-29T15:18:21.017Z,38.60
2018-05-29T15:20:49.282Z,38.30
2018-05-29T15:23:17.724Z,38.10
2018-05-29T15:25:45.978Z,38.70
2018-05-29T15:28:15.453Z,38.70
2018-05-29T15:30:43.729Z,39.50
2018-05-29T15:33:12.029Z,39.50
2018-05-29T15:35:40.235Z,39.50
2018-05-29T15:38:09.036Z,39.30
2018-05-29T15:40:37.309Z,39.10
2018-05-29T15:43:05.736Z,38.80
2018-05-29T15:45:34.505Z,38.10
2018-05-29T15:48:03.409Z,37.10
2018-05-29T15:50:31.784Z,37.10
2018-05-29T15:53:00.232Z,37.80
2018-05-29T15:55:28.556Z,37.30
2018-05-29T15:57:56.924Z,36.00
2018-05-29T16:00:25.502Z,35.30
2018-05-29T16:02:53.988Z,34.80
2018-05-29T16:05:22.377Z,34.50
2018-05-29T16:07:51.132Z,34.10
2018-05-29T16:10:19.441Z,33.70
2018-05-29T16:12:47.684Z,33.40
2018-05-29T16:15:16.260Z,33.20
2018-05-29T16:17:44.505Z,33.00
2018-05-29T16:20:12.756Z,32.90
2018-05-29T16:22:41.033Z,32.70
2018-05-29T16:25:09.283Z,32.60
2018-05-29T16:27:37.538Z,32.40
2018-05-29T16:30:07.156Z,32.20
2018-05-29T16:32:35.470Z,31.80
2018-05-29T16:35:03.706Z,31.60
2018-05-29T16:37:31.985Z,31.40
2018-05-29T16:40:00.361Z,31.20
2018-05-29T16:42:28.784Z,31.10
2018-05-29T16:44:57.085Z,31.00
2018-05-29T16:47:26.092Z,30.60
2018-05-29T16:49:55.678Z,30.40
2018-05-29T16:52:25.997Z,30.20
2018-05-29T16:54:55.172Z,30.10
2018-05-29T16:57:23.857Z,30.10
2018-05-29T16:59:52.276Z,30.00
2018-05-29T17:02:21.730Z,29.70
2018-05-29T17:04:50.390Z,29.70
2018-05-29T17:07:18.593Z,29.70
2018-05-29T17:09:46.986Z,29.70
2018-05-29T17:12:15.357Z,29.60
2018-05-29T17:14:43.866Z,29.60
2018-05-29T17:17:14.573Z,29.50
2018-05-29T17:19:43.149Z,29.50
2018-05-29T17:22:11.421Z,29.40
2018-05-29T17:24:39.805Z,29.40
2018-05-29T17:27:08.085Z,29.30
2018-05-29T17:29:36.356Z,29.10
2018-05-29T17:32:05.777Z,28.90
2018-05-29T17:34:34.153Z,28.70
2018-05-29T17:37:03.840Z,28.40
2018-05-29T17:39:32.335Z,28.30
2018-05-29T17:42:00.731Z,28.20
2018-05-29T17:44:29.205Z,28.00
2018-05-29T17:46:59.616Z,27.80
2018-05-29T17:49:27.857Z,27.70
2018-05-29T17:51:56.213Z,27.60
2018-05-29T17:54:25.248Z,27.30
2018-05-29T17:56:53.556Z,27.30
2018-05-29T17:59:22.323Z,27.30
2018-05-29T18:01:50.621Z,27.20
2018-05-29T18:04:18.996Z,27.10
2018-05-29T18:06:47.396Z,27.10
2018-05-29T18:09:17.933Z,27.00
2018-05-29T18:11:48.176Z,27.00
2018-05-29T18:14:17.452Z,27.00
2018-05-29T18:16:46.465Z,26.80
2018-05-29T18:19:14.787Z,26.80
2018-05-29T18:21:43.252Z,26.80
2018-05-29T18:24:11.481Z,26.80
2018-05-29T18:26:40.182Z,26.60
2018-05-29T18:29:08.396Z,26.50
2018-05-29T18:31:37.613Z,26.50
2018-05-29T18:34:06.017Z,26.40
2018-05-29T18:36:35.078Z,26.40
2018-05-29T18:39:03.316Z,26.40
2018-05-29T18:41:31.831Z,26.40
2018-05-29T18:44:00.173Z,26.30
2018-05-29T18:46:28.425Z,26.20
2018-05-29T18:48:56.715Z,26.20
2018-05-29T18:51:24.945Z,26.10
2018-05-29T18:53:53.336Z,26.10
2018-05-29T18:56:21.645Z,26.10
2018-05-29T18:58:50.300Z,26.10
2018-05-29T19:01:18.828Z,26.10
2018-05-29T19:03:47.549Z,26.10
2018-05-29T19:06:15.866Z,26.00
2018-05-29T19:08:44.124Z,25.90
2018-05-29T19:11:12.697Z,25.80
2018-05-29T19:13:41.072Z,25.80
2018-05-29T19:16:09.405Z,25.80
2018-05-29T19:18:38.516Z,25.80
2018-05-29T19:21:06.768Z,25.80
2018-05-29T19:23:35.784Z,25.60
2018-05-29T19:26:04.111Z,25.60
2018-05-29T19:28:32.487Z,25.60
2018-05-29T19:31:01.792Z,25.50
2018-05-29T19:33:30.201Z,25.40
2018-05-29T19:35:59.473Z,25.40
2018-05-29T19:38:27.848Z,25.30
2018-05-29T19:40:56.427Z,25.20
2018-05-29T19:43:24.659Z,25.20
2018-05-29T19:45:52.912Z,25.10
2018-05-29T19:48:21.559Z,25.20
2018-05-29T19:50:51.186Z,25.20
2018-05-29T19:53:19.412Z,25.10
2018-05-29T19:55:47.688Z,25.00
2018-05-29T19:58:15.932Z,25.00
2018-05-29T20:00:44.953Z,24.90
2018-05-29T20:03:13.225Z,24.90
2018-05-29T20:05:41.480Z,25.00
2018-05-29T20:08:09.722Z,25.00
2018-05-29T20:10:38.076Z,24.90
2018-05-29T20:13:06.332Z,24.80
2018-05-29T20:15:34.568Z,24.70
2018-05-29T20:18:02.854Z,24.70
2018-05-29T20:20:31.865Z,24.40
2018-05-29T20:23:00.879Z,24.40
2018-05-29T20:25:29.915Z,24.30
2018-05-29T20:27:58.165Z,24.20
2018-05-29T20:30:26.413Z,24.10
2018-05-29T20:32:55.025Z,24.00
2018-05-29T20:35:23.281Z,24.00
2018-05-29T20:37:51.540Z,23.90
2018-05-29T20:40:20.576Z,23.90
2018-05-29T20:42:48.834Z,23.90
2018-05-29T20:45:17.077Z,23.80
2018-05-29T20:47:45.351Z,23.90
2018-05-29T20:50:14.428Z,23.80
2018-05-29T20:52:42.680Z,23.80
2018-05-29T20:55:11.363Z,23.70
2018-05-29T20:57:40.004Z,23.60
2018-05-29T21:00:09.012Z,23.50
2018-05-29T21:02:39.211Z,23.50
2018-05-29T21:05:08.259Z,23.50
2018-05-29T21:07:36.583Z,23.50
2018-05-29T21:10:05.625Z,23.50
2018-05-29T21:12:33.877Z,23.50
2018-05-29T21:15:02.192Z,23.40
2018-05-29T21:17:30.496Z,23.30
2018-05-29T21:19:59.504Z,23.20
2018-05-29T21:22:28.532Z,23.20
2018-05-29T21:24:56.816Z,23.20
2018-05-29T21:27:25.064Z,23.20
2018-05-29T21:29:53.322Z,23.20
2018-05-29T21:32:21.576Z,23.20
2018-05-29T21:34:49.830Z,23.20
2018-05-29T21:37:18.097Z,23.20
2018-05-29T21:39:46.785Z,23.10
2018-05-29T21:42:15.049Z,23.10
2018-05-29T21:44:43.296Z,23.10
2018-05-29T21:47:12.343Z,23.00
2018-05-29T21:49:40.592Z,23.00
2018-05-29T21:52:08.840Z,23.00
2018-05-29T21:54:37.881Z,23.00
2018-05-29T21:57:06.141Z,23.00
2018-05-29T21:59:34.705Z,22.90
2018-05-29T22:02:03.033Z,22.90
2018-05-29T22:04:31.290Z,22.80
2018-05-29T22:06:59.529Z,22.80
2018-05-29T22:09:28.581Z,22.70
2018-05-29T22:11:56.835Z,22.70
2018-05-29T22:14:25.072Z,22.70
2018-05-29T22:16:54.123Z,22.80
2018-05-29T22:19:22.372Z,22.80
2018-05-29T22:21:50.621Z,22.80
2018-05-29T22:24:19.036Z,22.70
2018-05-29T22:26:47.314Z,22.70
2018-05-29T22:29:15.564Z,22.60
2018-05-29T22:31:43.840Z,22.60
2018-05-29T22:34:12.103Z,22.50
2018-05-29T22:36:40.362Z,22.50
2018-05-29T22:39:08.623Z,22.50
2018-05-29T22:41:36.887Z,22.40
2018-05-29T22:44:05.177Z,22.40
2018-05-29T22:46:33.642Z,22.40
2018-05-29T22:49:01.897Z,22.30
2018-05-29T22:51:30.147Z,22.30
2018-05-29T22:53:58.416Z,22.30
2018-05-29T22:56:27.441Z,22.20
2018-05-29T22:58:55.706Z,22.10
2018-05-29T23:01:24.197Z,22.20
2018-05-29T23:03:52.449Z,22.10
2018-05-29T23:06:20.711Z,22.10
2018-05-29T23:08:49.968Z,22.10
2018-05-29T23:11:18.240Z,22.10
2018-05-29T23:13:46.479Z,22.10
2018-05-29T23:16:14.755Z,22.10
2018-05-29T23:18:43.772Z,22.00
2018-05-29T23:21:12.024Z,22.00
2018-05-29T23:23:40.495Z,22.00
2018-05-29T23:26:09.512Z,21.90
2018-05-29T23:28:37.752Z,21.90
2018-05-29T23:31:06.310Z,21.90
2018-05-29T23:33:34.559Z,21.90
2018-05-29T23:36:02.810Z,21.90
2018-05-29T23:38:31.852Z,21.80
2018-05-29T23:41:00.103Z,21.80
2018-05-29T23:43:28.486Z,21.80
2018-05-29T23:45:56.767Z,21.80
2018-05-29T23:48:25.011Z,21.70
2018-05-29T23:50:54.029Z,21.70
2018-05-29T23:53:22.578Z,21.70
2018-05-29T23:55:51.876Z,21.70
2018-05-29T23:58:20.886Z,21.70
